Time;durP1;ratioP1;P1;durP2;ratioP2;P2;SDS_P1;SDS_P2;PMS_P1;PMS_P2;Temp;Humidity;BMP_temperature;BMP_pressure;BME280_temperature;BME280_humidity;BME280_pressure;Samples;Min_cycle;Max_cycle;Signal;HPM_P1;HPM_P2
2024/01/07 00:01:11;;;;;;;13.05;5.88;;;;;;;;;;5044692;28;20053;-75
2024/01/07 00:03:36;;;;;;;8.30;3.38;;;;;;;;;;5046131;28;20132;-74
2024/01/07 00:06:02;;;;;;;9.35;4.28;;;;;;;;;;5044785;28;20453;-74
2024/01/07 00:08:27;;;;;;;11.48;5.13;;;;;;;;;;5046669;28;20067;-74
2024/01/07 00:10:53;;;;;;;14.18;5.88;;;;;;;;;;5042036;28;20057;-74
2024/01/07 00:13:18;;;;;;;10.45;5.25;;;;;;;;;;5050208;28;20033;-74
2024/01/07 00:15:43;;;;;;;10.88;5.30;;;;;;;;;;5042527;28;20040;-74
2024/01/07 00:18:09;;;;;;;12.98;5.28;;;;;;;;;;5048154;28;20082;-74
2024/01/07 00:20:34;;;;;;;7.32;3.25;;;;;;;;;;5044506;28;20044;-75
2024/01/07 00:22:59;;;;;;;11.85;5.03;;;;;;;;;;5026264;28;20518;-75
2024/01/07 00:25:25;;;;;;;10.55;4.53;;;;;;;;;;5024040;28;20530;-75
2024/01/07 00:27:51;;;;;;;9.45;4.18;;;;;;;;;;5026308;28;20037;-74
2024/01/07 00:30:19;;;;;;;15.82;5.35;;;;;;;;;;5029559;28;20036;-75
2024/01/07 00:32:44;;;;;;;11.55;4.68;;;;;;;;;;5040773;28;20826;-74
2024/01/07 00:35:09;;;;;;;10.65;5.07;;;;;;;;;;5025600;28;20041;-75
2024/01/07 00:37:35;;;;;;;11.82;5.30;;;;;;;;;;5033225;28;20037;-74
2024/01/07 00:40:00;;;;;;;11.98;5.20;;;;;;;;;;5060695;28;20041;-74
2024/01/07 00:42:26;;;;;;;13.75;5.70;;;;;;;;;;5060409;28;20070;-75
2024/01/07 00:44:51;;;;;;;15.98;7.15;;;;;;;;;;5044851;28;20036;-75
2024/01/07 00:47:16;;;;;;;11.13;5.32;;;;;;;;;;5060730;28;20037;-75
2024/01/07 00:49:42;;;;;;;11.82;5.57;;;;;;;;;;5044603;28;20041;-74
2024/01/07 00:52:08;;;;;;;10.43;4.70;;;;;;;;;;5045068;28;20505;-74
2024/01/07 00:54:34;;;;;;;11.38;5.25;;;;;;;;;;5044606;28;20043;-74
2024/01/07 00:56:59;;;;;;;13.18;5.70;;;;;;;;;;5043384;28;20045;-74
2024/01/07 00:59:24;;;;;;;14.98;6.25;;;;;;;;;;5044959;28;20072;-74
2024/01/07 01:01:50;;;;;;;12.65;4.80;;;;;;;;;;5045567;28;20131;-74
2024/01/07 01:04:15;;;;;;;15.93;6.60;;;;;;;;;;5043494;28;20106;-74
2024/01/07 01:06:41;;;;;;;15.13;6.10;;;;;;;;;;5043831;28;20420;-74
2024/01/07 01:09:06;;;;;;;11.18;4.55;;;;;;;;;;5044881;28;20108;-74
2024/01/07 01:11:31;;;;;;;10.27;4.50;;;;;;;;;;5044938;28;20147;-74
2024/01/07 01:13:57;;;;;;;11.75;6.03;;;;;;;;;;5044542;28;20070;-74
2024/01/07 01:16:23;;;;;;;10.70;5.13;;;;;;;;;;5045136;28;20025;-75
2024/01/07 01:18:49;;;;;;;14.02;6.78;;;;;;;;;;5045220;28;20118;-74
2024/01/07 01:21:15;;;;;;;12.15;5.80;;;;;;;;;;5051987;28;20453;-74
2024/01/07 01:23:40;;;;;;;11.93;5.45;;;;;;;;;;5023585;28;20068;-74
2024/01/07 01:26:05;;;;;;;10.50;4.28;;;;;;;;;;5025834;28;20083;-75
2024/01/07 01:28:31;;;;;;;11.80;5.13;;;;;;;;;;5025701;28;20042;-74
2024/01/07 01:30:56;;;;;;;16.65;7.43;;;;;;;;;;5028445;28;21289;-76
2024/01/07 01:33:22;;;;;;;13.30;5.97;;;;;;;;;;5036891;28;20029;-76
2024/01/07 01:35:47;;;;;;;12.27;5.80;;;;;;;;;;5036561;28;20103;-76
2024/01/07 01:38:13;;;;;;;14.00;5.65;;;;;;;;;;5055069;28;20091;-75
2024/01/07 01:40:38;;;;;;;11.70;5.55;;;;;;;;;;5048540;28;20064;-75
2024/01/07 01:43:04;;;;;;;14.00;6.05;;;;;;;;;;5048061;28;20037;-76
2024/01/07 01:45:29;;;;;;;15.32;6.55;;;;;;;;;;5047659;28;20127;-75
2024/01/07 01:47:55;;;;;;;12.35;5.38;;;;;;;;;;5048219;28;20110;-76
2024/01/07 01:50:20;;;;;;;17.15;8.82;;;;;;;;;;5047216;28;20510;-76
2024/01/07 01:52:46;;;;;;;10.50;4.72;;;;;;;;;;5048850;28;20175;-76
2024/01/07 01:55:12;;;;;;;13.40;5.40;;;;;;;;;;5034340;28;20123;-75
2024/01/07 01:57:39;;;;;;;16.13;4.63;;;;;;;;;;5027439;28;20029;-76
2024/01/07 02:00:05;;;;;;;13.60;7.15;;;;;;;;;;5027034;28;20084;-76
2024/01/07 02:02:34;;;;;;;13.48;5.47;;;;;;;;;;5027094;28;20091;-75
2024/01/07 02:05:03;;;;;;;14.20;5.60;;;;;;;;;;5028279;28;20049;-75
2024/01/07 02:07:29;;;;;;;15.75;5.80;;;;;;;;;;5026846;28;20033;-76
2024/01/07 02:09:55;;;;;;;12.02;5.10;;;;;;;;;;5026315;28;20033;-76
2024/01/07 02:12:20;;;;;;;15.40;5.38;;;;;;;;;;5027885;28;20021;-76
2024/01/07 02:14:45;;;;;;;8.70;4.00;;;;;;;;;;5027021;28;20037;-75
2024/01/07 02:17:11;;;;;;;12.07;5.15;;;;;;;;;;5026855;28;20052;-75
2024/01/07 02:19:36;;;;;;;13.63;5.88;;;;;;;;;;5028212;28;20037;-76
2024/01/07 02:22:03;;;;;;;14.27;6.18;;;;;;;;;;5034454;28;20148;-76
2024/01/07 02:24:30;;;;;;;13.68;5.43;;;;;;;;;;5048397;28;20094;-75
2024/01/07 02:26:56;;;;;;;17.08;7.68;;;;;;;;;;5048029;28;20124;-76
2024/01/07 02:29:21;;;;;;;12.13;5.68;;;;;;;;;;5047724;28;20135;-75
2024/01/07 02:31:46;;;;;;;16.67;7.47;;;;;;;;;;5048399;28;20304;-76
2024/01/07 02:34:12;;;;;;;13.68;6.10;;;;;;;;;;5029557;28;20041;-75
2024/01/07 02:36:37;;;;;;;11.77;5.55;;;;;;;;;;5047766;28;20078;-75
2024/01/07 02:39:03;;;;;;;12.82;5.32;;;;;;;;;;5045733;28;20029;-75
2024/01/07 02:41:28;;;;;;;12.43;5.75;;;;;;;;;;5045900;28;20033;-75
2024/01/07 02:43:53;;;;;;;15.70;7.25;;;;;;;;;;5047601;28;20110;-76
2024/01/07 02:46:20;;;;;;;12.75;5.80;;;;;;;;;;5047146;28;20036;-76
2024/01/07 02:48:45;;;;;;;12.52;6.25;;;;;;;;;;5047060;28;20572;-75
2024/01/07 02:51:10;;;;;;;17.40;6.55;;;;;;;;;;5052155;28;20144;-75
2024/01/07 02:53:36;;;;;;;10.65;5.28;;;;;;;;;;5062497;28;20044;-75
2024/01/07 02:56:01;;;;;;;15.25;7.78;;;;;;;;;;5058443;28;20064;-76
2024/01/07 02:58:26;;;;;;;15.43;5.75;;;;;;;;;;5049296;28;20065;-76
2024/01/07 03:00:52;;;;;;;17.05;6.70;;;;;;;;;;5047725;28;20029;-75
2024/01/07 03:03:18;;;;;;;13.13;4.93;;;;;;;;;;5059461;28;20174;-75
2024/01/07 03:05:43;;;;;;;14.52;5.90;;;;;;;;;;5040533;28;20041;-75
2024/01/07 03:08:09;;;;;;;13.63;6.97;;;;;;;;;;5045841;28;20418;-75
2024/01/07 03:10:34;;;;;;;12.30;5.57;;;;;;;;;;5045786;28;20033;-75
2024/01/07 03:13:00;;;;;;;10.00;5.30;;;;;;;;;;5045275;28;20028;-76
2024/01/07 03:15:26;;;;;;;13.45;6.35;;;;;;;;;;5047949;28;20029;-75
2024/01/07 03:17:51;;;;;;;12.98;4.88;;;;;;;;;;5045212;28;20052;-75
2024/01/07 03:20:16;;;;;;;9.68;4.80;;;;;;;;;;5046656;28;20101;-75
2024/01/07 03:22:42;;;;;;;14.23;6.93;;;;;;;;;;5028017;28;20507;-75
2024/01/07 03:25:07;;;;;;;13.55;6.32;;;;;;;;;;5034372;28;20044;-76
2024/01/07 03:27:33;;;;;;;14.27;6.82;;;;;;;;;;5047089;28;20029;-75
2024/01/07 03:29:58;;;;;;;15.25;6.75;;;;;;;;;;5030820;28;20034;-75
2024/01/07 03:32:24;;;;;;;17.92;6.63;;;;;;;;;;5042776;28;20030;-75
2024/01/07 03:34:49;;;;;;;15.95;6.65;;;;;;;;;;5045658;28;20822;-75
2024/01/07 03:37:14;;;;;;;19.90;6.93;;;;;;;;;;5056833;28;20087;-75
2024/01/07 03:39:40;;;;;;;16.10;7.13;;;;;;;;;;5026420;28;20021;-75
2024/01/07 03:42:11;;;;;;;18.40;8.23;;;;;;;;;;5042256;28;20021;-75
2024/01/07 03:44:36;;;;;;;19.02;7.13;;;;;;;;;;5025415;28;20120;-76
2024/01/07 03:47:02;;;;;;;15.88;6.72;;;;;;;;;;5025355;28;20121;-76
2024/01/07 03:49:27;;;;;;;18.20;6.65;;;;;;;;;;5026772;28;20422;-76
2024/01/07 03:51:52;;;;;;;14.73;7.47;;;;;;;;;;5026857;28;20379;-76
2024/01/07 03:54:18;;;;;;;16.02;7.05;;;;;;;;;;5026677;28;20444;-76
2024/01/07 03:56:43;;;;;;;15.60;6.70;;;;;;;;;;5024715;28;20728;-76
2024/01/07 03:59:08;;;;;;;18.15;7.35;;;;;;;;;;5026400;28;20423;-76
2024/01/07 04:01:34;;;;;;;15.05;6.22;;;;;;;;;;5024112;28;20046;-76
2024/01/07 04:03:59;;;;;;;16.50;7.13;;;;;;;;;;5025190;28;20136;-75
2024/01/07 04:06:24;;;;;;;18.50;7.82;;;;;;;;;;5026958;28;20398;-76
2024/01/07 04:08:50;;;;;;;20.73;8.25;;;;;;;;;;5026275;28;20511;-76
2024/01/07 04:11:15;;;;;;;17.65;7.45;;;;;;;;;;5033334;28;20338;-76
2024/01/07 04:13:40;;;;;;;20.58;8.80;;;;;;;;;;5041495;28;20037;-76
2024/01/07 04:16:06;;;;;;;23.23;10.05;;;;;;;;;;5044349;28;20033;-76
2024/01/07 04:18:31;;;;;;;25.77;10.35;;;;;;;;;;5041076;28;20039;-76
2024/01/07 04:20:56;;;;;;;20.88;9.05;;;;;;;;;;5045397;28;20521;-81
2024/01/07 04:23:22;;;;;;;31.27;9.93;;;;;;;;;;5044140;28;20761;-76
2024/01/07 04:25:47;;;;;;;25.60;10.32;;;;;;;;;;5045507;28;20079;-75
2024/01/07 04:28:12;;;;;;;27.23;10.02;;;;;;;;;;5043981;28;20052;-76
2024/01/07 04:30:38;;;;;;;22.75;10.07;;;;;;;;;;5045311;28;20017;-76
2024/01/07 04:33:03;;;;;;;25.05;9.55;;;;;;;;;;5044435;28;20056;-76
2024/01/07 04:35:29;;;;;;;25.52;10.32;;;;;;;;;;5044089;28;20033;-76
2024/01/07 04:37:54;;;;;;;29.02;12.50;;;;;;;;;;5033687;28;20052;-76
2024/01/07 04:40:19;;;;;;;21.50;9.25;;;;;;;;;;5025499;28;20034;-76
2024/01/07 04:42:45;;;;;;;27.60;11.30;;;;;;;;;;5024184;28;20102;-76
2024/01/07 04:45:10;;;;;;;28.42;12.05;;;;;;;;;;5024231;28;20021;-75
2024/01/07 04:47:36;;;;;;;22.45;8.80;;;;;;;;;;5034201;28;20043;-76
2024/01/07 04:50:02;;;;;;;24.27;10.07;;;;;;;;;;5044963;28;20075;-76
2024/01/07 04:52:28;;;;;;;30.65;11.57;;;;;;;;;;5043648;28;20060;-76
2024/01/07 04:54:54;;;;;;;26.40;10.27;;;;;;;;;;5044065;28;20486;-76
2024/01/07 04:57:20;;;;;;;21.50;9.55;;;;;;;;;;5044190;28;20021;-76
2024/01/07 04:59:47;;;;;;;23.77;10.07;;;;;;;;;;5044814;28;20041;-76
2024/01/07 05:02:12;;;;;;;29.77;11.27;;;;;;;;;;5044911;28;20044;-75
2024/01/07 05:04:38;;;;;;;21.73;9.45;;;;;;;;;;5044699;28;20067;-75
2024/01/07 05:07:03;;;;;;;25.00;10.75;;;;;;;;;;5044891;28;20558;-75
2024/01/07 05:09:29;;;;;;;28.08;11.07;;;;;;;;;;5043331;28;20036;-74
2024/01/07 05:11:54;;;;;;;24.40;9.85;;;;;;;;;;5044869;28;20532;-75
2024/01/07 05:14:20;;;;;;;30.55;13.60;;;;;;;;;;5060036;28;20086;-74
2024/01/07 05:16:45;;;;;;;27.95;10.30;;;;;;;;;;5042644;28;20078;-75
2024/01/07 05:19:10;;;;;;;29.73;12.88;;;;;;;;;;5037076;28;20029;-75
2024/01/07 05:21:36;;;;;;;24.90;10.20;;;;;;;;;;5041492;28;20555;-75
2024/01/07 05:24:01;;;;;;;36.95;16.48;;;;;;;;;;5025769;28;20045;-74
2024/01/07 05:26:27;;;;;;;24.90;10.10;;;;;;;;;;5045474;28;20037;-75
2024/01/07 05:28:52;;;;;;;18.27;7.85;;;;;;;;;;5025479;28;20129;-74
2024/01/07 05:31:18;;;;;;;26.85;10.95;;;;;;;;;;5034223;28;20041;-75
2024/01/07 05:33:44;;;;;;;26.55;10.90;;;;;;;;;;5040960;28;20037;-74
2024/01/07 05:36:11;;;;;;;27.70;12.30;;;;;;;;;;5033204;28;20112;-74
2024/01/07 05:38:36;;;;;;;28.55;11.55;;;;;;;;;;5042594;28;20044;-74
2024/01/07 05:41:01;;;;;;;32.97;11.48;;;;;;;;;;5044237;28;20052;-75
2024/01/07 05:43:27;;;;;;;29.23;11.00;;;;;;;;;;5043428;28;20163;-75
2024/01/07 05:45:52;;;;;;;27.77;10.88;;;;;;;;;;5045292;28;20047;-74
2024/01/07 05:48:20;;;;;;;33.05;13.00;;;;;;;;;;5043813;28;20021;-74
2024/01/07 05:50:46;;;;;;;24.05;10.18;;;;;;;;;;5022254;28;20052;-74
2024/01/07 05:53:11;;;;;;;32.40;12.43;;;;;;;;;;5023642;28;20037;-74
2024/01/07 05:55:36;;;;;;;32.38;12.98;;;;;;;;;;5023241;28;20049;-74
2024/01/07 05:58:02;;;;;;;27.17;9.95;;;;;;;;;;5023090;28;20491;-75
2024/01/07 06:00:27;;;;;;;31.35;12.18;;;;;;;;;;5025472;28;20029;-75
2024/01/07 06:02:52;;;;;;;33.17;13.40;;;;;;;;;;5022519;28;20483;-74
2024/01/07 06:05:18;;;;;;;28.27;10.35;;;;;;;;;;5024854;28;20045;-75
2024/01/07 06:07:43;;;;;;;27.15;9.80;;;;;;;;;;5023260;28;20038;-74
2024/01/07 06:10:08;;;;;;;25.85;10.80;;;;;;;;;;5024557;28;20507;-75
2024/01/07 06:12:34;;;;;;;29.23;12.43;;;;;;;;;;5025141;28;20056;-74
2024/01/07 06:14:59;;;;;;;32.30;13.82;;;;;;;;;;5024009;28;20411;-74
2024/01/07 06:17:25;;;;;;;33.67;11.70;;;;;;;;;;5024656;28;20049;-75
2024/01/07 06:19:50;;;;;;;33.83;12.35;;;;;;;;;;5035699;28;20089;-74
2024/01/07 06:22:15;;;;;;;27.58;11.13;;;;;;;;;;5044376;28;20128;-75
2024/01/07 06:24:41;;;;;;;29.65;10.63;;;;;;;;;;5044660;28;20112;-75
2024/01/07 06:27:07;;;;;;;26.45;9.88;;;;;;;;;;5046514;28;20025;-74
2024/01/07 06:29:33;;;;;;;31.30;11.55;;;;;;;;;;5045884;28;20045;-74
2024/01/07 06:31:59;;;;;;;29.88;11.27;;;;;;;;;;5047436;28;20044;-75
2024/01/07 06:34:24;;;;;;;24.17;9.75;;;;;;;;;;5045933;28;20086;-75
2024/01/07 06:36:49;;;;;;;29.48;10.57;;;;;;;;;;5044317;28;20564;-75
2024/01/07 06:39:15;;;;;;;29.67;11.25;;;;;;;;;;5043195;28;20271;-75
2024/01/07 06:41:40;;;;;;;30.60;10.95;;;;;;;;;;5027371;28;20174;-75
2024/01/07 06:44:05;;;;;;;38.53;14.45;;;;;;;;;;5026041;28;20034;-74
2024/01/07 06:46:31;;;;;;;27.70;11.38;;;;;;;;;;5043907;28;20036;-75
2024/01/07 06:48:56;;;;;;;38.50;14.60;;;;;;;;;;5029987;28;20064;-75
2024/01/07 06:51:22;;;;;;;39.45;13.77;;;;;;;;;;5038593;28;20060;-75
2024/01/07 06:53:47;;;;;;;33.08;10.52;;;;;;;;;;5038457;28;20045;-74
2024/01/07 06:56:13;;;;;;;32.35;11.90;;;;;;;;;;5042586;28;20037;-74
2024/01/07 06:58:38;;;;;;;28.88;11.13;;;;;;;;;;5024440;28;20033;-74
2024/01/07 07:01:06;;;;;;;30.58;11.48;;;;;;;;;;5024926;28;20048;-75
2024/01/07 07:03:32;;;;;;;33.03;12.23;;;;;;;;;;5027852;28;20407;-75
2024/01/07 07:05:57;;;;;;;28.42;11.07;;;;;;;;;;5028267;28;20047;-75
2024/01/07 07:08:22;;;;;;;28.13;11.98;;;;;;;;;;5043826;28;20041;-74
2024/01/07 07:10:48;;;;;;;22.30;9.98;;;;;;;;;;5046861;28;20540;-74
2024/01/07 07:13:14;;;;;;;29.83;13.18;;;;;;;;;;5045403;28;20406;-74
2024/01/07 07:15:40;;;;;;;32.33;11.75;;;;;;;;;;5046517;28;20040;-75
2024/01/07 07:18:05;;;;;;;29.33;11.63;;;;;;;;;;5045980;28;20028;-75
2024/01/07 07:20:30;;;;;;;31.17;11.15;;;;;;;;;;5045497;28;20848;-75
2024/01/07 07:22:56;;;;;;;28.42;12.10;;;;;;;;;;5044576;28;20029;-74
2024/01/07 07:25:21;;;;;;;32.00;13.25;;;;;;;;;;5032988;28;20030;-75
2024/01/07 07:27:46;;;;;;;29.98;11.73;;;;;;;;;;5024764;28;20027;-75
2024/01/07 07:30:12;;;;;;;30.92;12.27;;;;;;;;;;5027186;28;20486;-75
2024/01/07 07:32:44;;;;;;;29.83;11.88;;;;;;;;;;5024405;28;20043;-75
2024/01/07 07:35:09;;;;;;;29.83;11.60;;;;;;;;;;5023544;28;20167;-75
2024/01/07 07:37:35;;;;;;;27.05;9.82;;;;;;;;;;5035698;28;20147;-74
2024/01/07 07:40:00;;;;;;;34.88;13.15;;;;;;;;;;5037844;28;20407;-74
2024/01/07 07:42:25;;;;;;;28.58;11.73;;;;;;;;;;5027937;28;20116;-74
2024/01/07 07:44:51;;;;;;;38.35;13.85;;;;;;;;;;5027126;28;20544;-74
2024/01/07 07:47:16;;;;;;;31.80;12.30;;;;;;;;;;5028559;28;20061;-74
2024/01/07 07:49:42;;;;;;;27.00;9.98;;;;;;;;;;5027117;28;20049;-73
2024/01/07 07:52:08;;;;;;;35.88;12.55;;;;;;;;;;5025088;28;20159;-74
2024/01/07 07:54:34;;;;;;;38.72;14.82;;;;;;;;;;5027529;28;20059;-74
2024/01/07 07:56:59;;;;;;;33.75;12.40;;;;;;;;;;5025952;28;20079;-73
2024/01/07 07:59:25;;;;;;;33.72;11.57;;;;;;;;;;5024931;28;20034;-74
2024/01/07 08:01:50;;;;;;;26.63;10.38;;;;;;;;;;5024287;28;20034;-74
2024/01/07 08:04:15;;;;;;;31.73;10.85;;;;;;;;;;5025757;28;20519;-74
2024/01/07 08:06:42;;;;;;;26.83;8.82;;;;;;;;;;5028938;28;20036;-74
2024/01/07 08:09:08;;;;;;;28.20;10.95;;;;;;;;;;5031610;28;20068;-74
2024/01/07 08:11:34;;;;;;;34.65;11.65;;;;;;;;;;5040095;28;20034;-74
2024/01/07 08:14:01;;;;;;;29.85;10.88;;;;;;;;;;5038445;28;20040;-74
2024/01/07 08:16:26;;;;;;;38.78;14.13;;;;;;;;;;5028998;28;20048;-73
2024/01/07 08:18:52;;;;;;;21.42;9.65;;;;;;;;;;5027132;28;20037;-73
2024/01/07 08:21:17;;;;;;;29.67;10.43;;;;;;;;;;5029757;28;20028;-74
2024/01/07 08:23:43;;;;;;;36.95;13.52;;;;;;;;;;5050280;28;20067;-74
2024/01/07 08:26:08;;;;;;;32.83;11.55;;;;;;;;;;5028858;28;20034;-75
2024/01/07 08:28:34;;;;;;;34.53;12.45;;;;;;;;;;5038651;28;20438;-74
2024/01/07 08:30:59;;;;;;;33.78;12.85;;;;;;;;;;5043290;28;20039;-74
2024/01/07 08:33:25;;;;;;;36.50;14.25;;;;;;;;;;5033833;28;20033;-74
2024/01/07 08:35:50;;;;;;;37.08;13.73;;;;;;;;;;5035830;28;20445;-74
2024/01/07 08:38:15;;;;;;;36.38;12.40;;;;;;;;;;5042464;28;20125;-74
2024/01/07 08:40:41;;;;;;;44.40;14.63;;;;;;;;;;5036843;28;20043;-74
2024/01/07 08:43:06;;;;;;;49.40;15.60;;;;;;;;;;5038723;28;20033;-76
2024/01/07 08:45:32;;;;;;;43.35;13.10;;;;;;;;;;5032476;28;20025;-75
2024/01/07 08:47:57;;;;;;;33.35;12.02;;;;;;;;;;5043429;28;20122;-74
2024/01/07 08:50:22;;;;;;;31.83;10.68;;;;;;;;;;5045672;28;20037;-74
2024/01/07 08:52:48;;;;;;;41.53;14.48;;;;;;;;;;5045603;28;20565;-74
2024/01/07 08:55:13;;;;;;;40.35;14.35;;;;;;;;;;5043857;28;20107;-74
2024/01/07 08:57:39;;;;;;;39.40;14.98;;;;;;;;;;5031655;28;20146;-74
2024/01/07 09:00:07;;;;;;;47.45;14.45;;;;;;;;;;5058032;28;20083;-74
2024/01/07 09:02:33;;;;;;;37.58;13.07;;;;;;;;;;5024054;28;20095;-74
2024/01/07 09:04:59;;;;;;;42.97;13.13;;;;;;;;;;5024970;28;20065;-74
2024/01/07 09:07:24;;;;;;;43.65;15.63;;;;;;;;;;5025816;28;20037;-74
2024/01/07 09:09:49;;;;;;;40.47;13.23;;;;;;;;;;5025136;28;20071;-74
2024/01/07 09:12:15;;;;;;;41.83;13.07;;;;;;;;;;5025606;28;20075;-74
2024/01/07 09:14:40;;;;;;;41.85;12.85;;;;;;;;;;5044506;28;20122;-74
2024/01/07 09:17:06;;;;;;;41.40;12.52;;;;;;;;;;5060559;28;20510;-75
2024/01/07 09:19:31;;;;;;;42.72;15.50;;;;;;;;;;5045009;28;20043;-74
2024/01/07 09:21:56;;;;;;;38.80;12.35;;;;;;;;;;5045611;28;20179;-74
2024/01/07 09:24:22;;;;;;;49.78;15.73;;;;;;;;;;5040521;28;20037;-74
2024/01/07 09:26:47;;;;;;;45.35;14.18;;;;;;;;;;5038327;28;20036;-74
2024/01/07 09:29:13;;;;;;;44.88;15.65;;;;;;;;;;5042872;28;20077;-74
2024/01/07 09:31:39;;;;;;;43.38;14.07;;;;;;;;;;5062258;28;20029;-74
2024/01/07 09:34:06;;;;;;;38.65;13.05;;;;;;;;;;5042107;28;20051;-73
2024/01/07 09:36:32;;;;;;;35.88;11.07;;;;;;;;;;5043982;28;20028;-74
2024/01/07 09:38:57;;;;;;;32.00;12.00;;;;;;;;;;5022430;28;20049;-74
2024/01/07 09:41:23;;;;;;;46.28;15.65;;;;;;;;;;5024383;28;20111;-74
2024/01/07 09:43:51;;;;;;;46.17;15.20;;;;;;;;;;5024734;28;20033;-74
2024/01/07 09:46:17;;;;;;;43.88;13.93;;;;;;;;;;5025436;28;20033;-74
2024/01/07 09:48:42;;;;;;;41.15;14.00;;;;;;;;;;5024349;28;20029;-74
2024/01/07 09:51:10;;;;;;;28.95;10.88;;;;;;;;;;5022682;28;20017;-74
2024/01/07 09:53:38;;;;;;;48.17;16.77;;;;;;;;;;5024300;28;20036;-73
2024/01/07 09:56:24;;;;;;;31.48;12.90;;;;;;;;;;5023253;28;20664;-73
2024/01/07 09:58:50;;;;;;;37.95;16.17;;;;;;;;;;5025469;28;20049;-73
2024/01/07 10:01:17;;;;;;;42.03;16.25;;;;;;;;;;5028919;28;20099;-74
2024/01/07 10:03:42;;;;;;;32.78;10.00;;;;;;;;;;5042962;28;20041;-74
2024/01/07 10:06:08;;;;;;;29.65;12.55;;;;;;;;;;5026956;28;20048;-73
2024/01/07 10:08:33;;;;;;;38.28;13.90;;;;;;;;;;5035574;28;20041;-75
2024/01/07 10:10:59;;;;;;;31.70;12.10;;;;;;;;;;5063701;28;20053;-74
2024/01/07 10:13:24;;;;;;;34.15;11.20;;;;;;;;;;5046167;28;20048;-74
2024/01/07 10:15:49;;;;;;;36.60;12.80;;;;;;;;;;5048465;28;20028;-74
2024/01/07 10:18:15;;;;;;;35.45;13.40;;;;;;;;;;5044159;28;20108;-74
2024/01/07 10:20:40;;;;;;;27.05;11.25;;;;;;;;;;5027434;28;20033;-74
2024/01/07 10:23:07;;;;;;;39.08;13.63;;;;;;;;;;5026816;28;20554;-74
2024/01/07 10:25:33;;;;;;;40.08;13.48;;;;;;;;;;5057036;28;20036;-74
2024/01/07 10:28:01;;;;;;;39.05;14.07;;;;;;;;;;5046474;28;20091;-74
2024/01/07 10:30:26;;;;;;;27.65;11.20;;;;;;;;;;5043049;28;20104;-73
2024/01/07 10:32:57;;;;;;;24.20;10.35;;;;;;;;;;5049866;28;20132;-74
2024/01/07 10:35:29;;;;;;;30.40;11.07;;;;;;;;;;5041061;28;20507;-74
2024/01/07 10:37:54;;;;;;;34.88;13.25;;;;;;;;;;5034627;28;20048;-74
2024/01/07 10:40:20;;;;;;;26.70;10.27;;;;;;;;;;5034006;28;20036;-75
2024/01/07 10:42:46;;;;;;;23.70;9.45;;;;;;;;;;5043319;28;20029;-75
2024/01/07 10:45:12;;;;;;;28.48;10.07;;;;;;;;;;5045419;28;20519;-74
2024/01/07 10:47:41;;;;;;;28.35;11.82;;;;;;;;;;5041610;28;20048;-74
2024/01/07 10:50:11;;;;;;;24.88;10.70;;;;;;;;;;5052529;28;20036;-75
2024/01/07 10:52:39;;;;;;;29.40;10.82;;;;;;;;;;5054289;28;20045;-74
2024/01/07 10:55:09;;;;;;;27.13;8.52;;;;;;;;;;5049228;28;20720;-74
2024/01/07 10:57:42;;;;;;;28.52;10.10;;;;;;;;;;5047610;28;20029;-74
2024/01/07 11:00:09;;;;;;;26.25;11.38;;;;;;;;;;5046487;28;20072;-75
2024/01/07 11:02:50;;;;;;;23.58;9.60;;;;;;;;;;5046535;28;20518;-74
2024/01/07 11:05:25;;;;;;;26.38;10.90;;;;;;;;;;5045713;28;20067;-74
2024/01/07 11:08:16;;;;;;;30.13;11.18;;;;;;;;;;5047214;28;20106;-74
2024/01/07 11:10:58;;;;;;;39.05;14.35;;;;;;;;;;5047552;28;20048;-74
2024/01/07 11:13:38;;;;;;;38.22;13.88;;;;;;;;;;5045742;28;20037;-74
2024/01/07 11:16:04;;;;;;;47.55;16.15;;;;;;;;;;5047417;28;20551;-74
2024/01/07 11:18:33;;;;;;;45.50;18.13;;;;;;;;;;5047965;28;20480;-74
2024/01/07 11:21:03;;;;;;;39.85;16.33;;;;;;;;;;5045714;28;20033;-74
2024/01/07 11:23:40;;;;;;;23.83;9.50;;;;;;;;;;5046769;28;20091;-74
2024/01/07 11:26:06;;;;;;;41.78;15.50;;;;;;;;;;5047617;28;20086;-74
2024/01/07 11:28:50;;;;;;;34.00;13.68;;;;;;;;;;5047150;28;20029;-74
2024/01/07 11:31:20;;;;;;;30.75;12.25;;;;;;;;;;5047385;28;20505;-74
2024/01/07 11:33:48;;;;;;;40.25;15.15;;;;;;;;;;5044627;28;20033;-75
2024/01/07 11:36:15;;;;;;;41.50;14.73;;;;;;;;;;5024899;28;20128;-74
2024/01/07 11:38:50;;;;;;;39.30;14.00;;;;;;;;;;5042755;28;20518;-74
2024/01/07 11:41:17;;;;;;;38.25;15.13;;;;;;;;;;5044024;28;20407;-74
2024/01/07 11:43:57;;;;;;;41.72;15.93;;;;;;;;;;5043412;28;20033;-75
2024/01/07 11:46:22;;;;;;;45.10;17.15;;;;;;;;;;5045252;28;20049;-74
2024/01/07 11:48:48;;;;;;;49.00;18.77;;;;;;;;;;5044646;28;20510;-74
2024/01/07 11:51:14;;;;;;;40.22;15.50;;;;;;;;;;5046840;28;20017;-74
2024/01/07 11:53:40;;;;;;;46.30;17.42;;;;;;;;;;5039803;28;20426;-74
2024/01/07 11:56:08;;;;;;;37.50;16.58;;;;;;;;;;5045765;28;20064;-74
2024/01/07 11:58:33;;;;;;;42.17;16.00;;;;;;;;;;5046075;28;20501;-75
2024/01/07 12:00:59;;;;;;;38.88;15.18;;;;;;;;;;5044524;28;20561;-74
2024/01/07 12:03:24;;;;;;;36.67;13.35;;;;;;;;;;5055079;28;20789;-73
2024/01/07 12:05:50;;;;;;;40.42;15.07;;;;;;;;;;5027189;28;20422;-74
2024/01/07 12:08:16;;;;;;;38.95;15.18;;;;;;;;;;5036867;28;20060;-74
2024/01/07 12:10:41;;;;;;;45.03;15.75;;;;;;;;;;5036728;28;20034;-74
2024/01/07 12:13:08;;;;;;;42.03;16.45;;;;;;;;;;5024797;28;20037;-74
2024/01/07 12:15:34;;;;;;;47.15;17.95;;;;;;;;;;5025721;28;20029;-74
2024/01/07 12:18:01;;;;;;;43.03;15.52;;;;;;;;;;5023509;28;20847;-74
2024/01/07 12:20:27;;;;;;;33.95;12.50;;;;;;;;;;5025524;28;20418;-74
2024/01/07 12:22:57;;;;;;;36.00;14.95;;;;;;;;;;5023553;28;20068;-76
2024/01/07 12:25:23;;;;;;;34.60;14.25;;;;;;;;;;5032981;28;20171;-74
2024/01/07 12:27:52;;;;;;;32.28;11.68;;;;;;;;;;5037994;28;20028;-74
2024/01/07 12:30:19;;;;;;;29.30;11.95;;;;;;;;;;5033206;28;20064;-74
2024/01/07 12:32:44;;;;;;;27.65;11.15;;;;;;;;;;5029589;28;20036;-74
2024/01/07 12:35:10;;;;;;;28.42;12.30;;;;;;;;;;5044711;28;20090;-74
2024/01/07 12:37:37;;;;;;;29.48;10.77;;;;;;;;;;5043525;28;20036;-74
2024/01/07 12:40:02;;;;;;;28.88;11.20;;;;;;;;;;5029411;28;20072;-74
2024/01/07 12:42:28;;;;;;;29.15;13.35;;;;;;;;;;5025569;28;20487;-75
2024/01/07 12:44:53;;;;;;;25.23;9.77;;;;;;;;;;5025986;28;20045;-74
2024/01/07 12:47:19;;;;;;;34.67;14.48;;;;;;;;;;5023463;28;20674;-74
2024/01/07 12:49:44;;;;;;;21.90;8.70;;;;;;;;;;5024561;28;20210;-74
2024/01/07 12:52:10;;;;;;;31.15;12.00;;;;;;;;;;5025564;28;20057;-75
2024/01/07 12:54:36;;;;;;;30.65;11.95;;;;;;;;;;5025531;28;20037;-74
2024/01/07 12:57:02;;;;;;;33.28;12.57;;;;;;;;;;5023005;28;20044;-74
2024/01/07 12:59:27;;;;;;;34.03;13.38;;;;;;;;;;5025924;28;20033;-75
2024/01/07 13:01:53;;;;;;;28.80;11.02;;;;;;;;;;5040006;28;20042;-73
2024/01/07 13:04:19;;;;;;;21.25;8.07;;;;;;;;;;5039164;28;20119;-73
2024/01/07 13:06:45;;;;;;;32.92;14.02;;;;;;;;;;5041307;28;20611;-73
2024/01/07 13:09:11;;;;;;;36.20;14.35;;;;;;;;;;5023661;28;20078;-73
2024/01/07 13:11:36;;;;;;;29.38;13.20;;;;;;;;;;5036773;28;20116;-73
2024/01/07 13:14:01;;;;;;;30.85;11.85;;;;;;;;;;5043254;28;20044;-73
2024/01/07 13:16:28;;;;;;;26.30;12.00;;;;;;;;;;5044620;28;20514;-73
2024/01/07 13:18:54;;;;;;;28.33;11.38;;;;;;;;;;5044416;28;20025;-72
2024/01/07 13:21:20;;;;;;;29.88;12.05;;;;;;;;;;5045618;28;20025;-73
2024/01/07 13:23:45;;;;;;;27.95;11.05;;;;;;;;;;5046529;28;20033;-73
2024/01/07 13:26:11;;;;;;;29.85;12.95;;;;;;;;;;5048909;28;20037;-73
2024/01/07 13:28:36;;;;;;;30.27;11.60;;;;;;;;;;5058360;28;20037;-73
2024/01/07 13:31:03;;;;;;;34.05;15.77;;;;;;;;;;5057016;28;20037;-73
2024/01/07 13:33:29;;;;;;;27.77;11.32;;;;;;;;;;5048489;28;20025;-73
2024/01/07 13:35:54;;;;;;;18.55;7.53;;;;;;;;;;5064820;28;20032;-75
2024/01/07 13:38:20;;;;;;;16.73;7.45;;;;;;;;;;5035239;28;20037;-74
2024/01/07 13:40:45;;;;;;;24.05;9.05;;;;;;;;;;5031597;28;20037;-74
2024/01/07 13:43:10;;;;;;;20.63;8.73;;;;;;;;;;5039694;28;20502;-74
2024/01/07 13:45:36;;;;;;;17.80;8.57;;;;;;;;;;5064268;28;20021;-74
2024/01/07 13:48:01;;;;;;;17.73;7.93;;;;;;;;;;5048501;28;20151;-74
2024/01/07 13:50:26;;;;;;;28.30;10.13;;;;;;;;;;5048587;28;20517;-74
2024/01/07 13:52:53;;;;;;;17.63;7.90;;;;;;;;;;5063381;28;20032;-74
2024/01/07 13:55:18;;;;;;;25.55;10.73;;;;;;;;;;5046766;28;20025;-74
2024/01/07 13:57:44;;;;;;;25.02;9.43;;;;;;;;;;5063130;28;20128;-73
2024/01/07 14:00:11;;;;;;;17.80;8.20;;;;;;;;;;5048933;28;20159;-74
2024/01/07 14:02:40;;;;;;;20.35;8.88;;;;;;;;;;5048353;28;20874;-74
2024/01/07 14:05:06;;;;;;;20.52;8.93;;;;;;;;;;5046501;28;20076;-74
2024/01/07 14:07:33;;;;;;;18.17;8.75;;;;;;;;;;5047705;28;20041;-74
2024/01/07 14:09:59;;;;;;;16.75;7.15;;;;;;;;;;5062391;28;20899;-74
2024/01/07 14:12:24;;;;;;;16.55;7.32;;;;;;;;;;5046775;28;20159;-74
2024/01/07 14:14:51;;;;;;;18.65;8.80;;;;;;;;;;5061700;28;20151;-74
2024/01/07 14:17:16;;;;;;;14.07;6.90;;;;;;;;;;5047957;28;20123;-74